Time;durP1;ratioP1;P1;durP2;ratioP2;P2;SDS_P1;SDS_P2;PMS_P1;PMS_P2;Temp;Humidity;BMP_temperature;BMP_pressure;BME280_temperature;BME280_humidity;BME280_pressure;Samples;Min_cycle;Max_cycle;Signal;HPM_P1;HPM_P2
2021/12/15 00:02:21;;;;;;;90.38;45.78;;;10.10;99.90;;;;;;5081432;28;19920;-61
2021/12/15 00:04:50;;;;;;;85.63;44.00;;;10.10;99.90;;;;;;5072476;28;20072;-61
2021/12/15 00:07:18;;;;;;;89.13;45.45;;;10.10;99.90;;;;;;5077542;28;20032;-61
2021/12/15 00:09:43;;;;;;;96.80;47.03;;;10.10;99.90;;;;;;5074227;28;20093;-60
2021/12/15 00:12:10;;;;;;;86.80;44.23;;;10.00;99.90;;;;;;5077878;28;20444;-60
2021/12/15 00:14:36;;;;;;;92.63;46.42;;;10.10;99.90;;;;;;5071380;28;20505;-61
2021/12/15 00:17:02;;;;;;;84.65;43.83;;;10.10;99.90;;;;;;5075383;28;20032;-61
2021/12/15 00:19:28;;;;;;;89.18;45.55;;;10.10;99.90;;;;;;5062206;28;20037;-61
2021/12/15 00:21:56;;;;;;;89.03;45.00;;;10.10;99.90;;;;;;5080389;28;20496;-61
2021/12/15 00:24:21;;;;;;;83.75;43.17;;;10.10;99.90;;;;;;5072518;28;20055;-60
2021/12/15 00:26:47;;;;;;;80.63;44.78;;;10.10;99.90;;;;;;5070610;28;20067;-60
2021/12/15 00:29:13;;;;;;;87.28;45.53;;;10.10;99.90;;;;;;5070275;28;20044;-60
2021/12/15 00:31:38;;;;;;;91.22;45.90;;;10.10;99.90;;;;;;5070496;28;20067;-60
2021/12/15 00:34:08;;;;;;;85.87;46.27;;;10.10;99.90;;;;;;5072466;28;20048;-60
2021/12/15 00:36:34;;;;;;;90.10;44.03;;;10.10;99.90;;;;;;5086855;28;20039;-60
2021/12/15 00:39:00;;;;;;;;;;;10.10;99.90;;;;;;5088558;28;20083;-63
2021/12/15 00:41:26;;;;;;;80.07;41.30;;;10.10;99.90;;;;;;5079968;28;19939;-60
2021/12/15 00:43:52;;;;;;;79.07;41.22;;;10.10;99.90;;;;;;5069826;28;20036;-60
2021/12/15 00:46:18;;;;;;;82.82;41.90;;;10.10;99.90;;;;;;5076268;28;20036;-61
2021/12/15 00:48:45;;;;;;;87.03;43.20;;;10.10;99.90;;;;;;5086976;28;20044;-60
2021/12/15 00:51:10;;;;;;;;;;;10.10;99.90;;;;;;5085874;28;20044;-60
2021/12/15 00:53:36;;;;;;;86.18;42.90;;;10.10;99.90;;;;;;5088982;28;19939;-60
2021/12/15 00:56:03;;;;;;;92.50;43.15;;;10.10;99.90;;;;;;5086822;28;20047;-61
2021/12/15 00:58:28;;;;;;;80.93;41.33;;;10.10;99.90;;;;;;5071213;28;20045;-61
2021/12/15 01:00:59;;;;;;;87.00;41.50;;;10.10;99.90;;;;;;5070523;28;20048;-60
2021/12/15 01:03:25;;;;;;;82.97;40.00;;;10.10;99.90;;;;;;5089666;28;20043;-61
2021/12/15 01:05:56;;;;;;;;;;;10.10;99.90;;;;;;5082665;28;20036;-60
2021/12/15 01:08:25;;;;;;;98.05;42.95;;;10.10;99.90;;;;;;5068010;28;19924;-61
2021/12/15 01:21:50;;;;;;;87.03;42.50;;;10.10;99.90;;;;;;5053996;28;20512;-61
2021/12/15 01:24:17;;;;;;;96.43;45.08;;;10.00;99.90;;;;;;5061795;28;20083;-61
2021/12/15 01:26:43;;;;;;;95.60;44.75;;;10.00;99.90;;;;;;5073794;28;20048;-61
2021/12/15 01:29:09;;;;;;;102.45;47.65;;;10.00;99.90;;;;;;5073652;28;20401;-61
2021/12/15 01:31:35;;;;;;;100.18;47.05;;;10.00;99.90;;;;;;5072616;28;20534;-61
2021/12/15 01:34:00;;;;;;;100.93;45.47;;;10.00;99.90;;;;;;5073159;28;20032;-61
2021/12/15 01:36:26;;;;;;;90.50;43.73;;;10.00;99.90;;;;;;5051012;22;20314;-75
2021/12/15 01:38:52;;;;;;;94.50;42.65;;;10.00;99.90;;;;;;5012668;28;20126;-76
2021/12/15 01:41:21;;;;;;;94.10;43.10;;;10.00;99.90;;;;;;5013000;28;20463;-76
2021/12/15 01:46:56;;;;;;;99.82;44.05;;;10.00;99.90;;;;;;5012234;28;20056;-76
2021/12/15 01:49:43;;;;;;;95.55;45.42;;;10.00;99.90;;;;;;5013630;28;20038;-76
2021/12/15 01:52:17;;;;;;;87.47;41.67;;;10.00;99.90;;;;;;5011669;28;20059;-76
2021/12/15 01:54:46;;;;;;;90.15;43.50;;;9.90;99.90;;;;;;5011846;28;20138;-76
2021/12/15 01:57:13;;;;;;;83.85;41.50;;;9.90;99.90;;;;;;5013710;28;20052;-76
2021/12/15 01:59:40;;;;;;;98.07;39.90;;;9.90;99.90;;;;;;5013260;28;20121;-76
2021/12/15 02:02:06;;;;;;;85.13;42.22;;;9.90;99.90;;;;;;5011527;28;20125;-75
2021/12/15 02:04:32;;;;;;;;;;;9.90;99.90;;;;;;5012223;28;20121;-75
2021/12/15 02:06:58;;;;;;;83.68;38.00;;;9.90;99.90;;;;;;5012113;28;20012;-76
2021/12/15 02:10:01;;;;;;;78.32;37.33;;;9.90;99.90;;;;;;5013506;28;20411;-76
2021/12/15 02:12:28;;;;;;;82.07;39.53;;;9.90;99.90;;;;;;5012578;28;20061;-76
2021/12/15 02:14:54;;;;;;;78.55;38.13;;;9.90;99.90;;;;;;5013235;28;20112;-76
2021/12/15 02:17:21;;;;;;;77.35;38.05;;;9.90;99.90;;;;;;5011669;28;20428;-76
2021/12/15 02:19:47;;;;;;;79.15;38.05;;;9.90;99.90;;;;;;5001563;28;20097;-76
2021/12/15 02:22:13;;;;;;;74.85;37.58;;;9.90;99.90;;;;;;5012585;28;20050;-76
2021/12/15 02:24:40;;;;;;;80.30;39.13;;;9.90;99.90;;;;;;5011523;28;20037;-76
2021/12/15 02:27:07;;;;;;;78.40;37.90;;;9.90;99.90;;;;;;5005012;28;20050;-75
2021/12/15 02:29:38;;;;;;;83.32;39.22;;;9.90;99.90;;;;;;5013028;28;20057;-75
2021/12/15 02:37:03;;;;;;;78.45;38.53;;;9.90;99.90;;;;;;5009868;28;20049;-75
2021/12/15 02:37:40;;;;;;;84.43;41.53;;;9.90;99.90;;;;;;5010935;28;20111;-75
2021/12/15 02:40:11;;;;;;;85.27;37.97;;;9.90;99.90;;;;;;5011327;28;20042;-75
2021/12/15 02:42:45;;;;;;;82.95;39.90;;;9.90;99.90;;;;;;5010339;28;20088;-75
2021/12/15 02:45:13;;;;;;;87.18;41.42;;;9.90;99.90;;;;;;5011234;28;20078;-75
2021/12/15 02:47:39;;;;;;;88.53;41.55;;;9.90;99.90;;;;;;5012155;28;20038;-75
2021/12/15 02:50:08;;;;;;;85.38;40.97;;;9.90;99.90;;;;;;5010977;28;20046;-75
2021/12/15 02:52:35;;;;;;;83.95;39.97;;;9.90;99.90;;;;;;5010553;28;20507;-76
2021/12/15 02:55:03;;;;;;;69.25;36.90;;;9.80;99.90;;;;;;5012117;28;20113;-76
2021/12/15 02:57:28;;;;;;;86.00;40.60;;;9.80;99.90;;;;;;5011511;28;20050;-76
2021/12/15 03:00:01;;;;;;;83.33;40.83;;;9.90;99.90;;;;;;5012348;28;20034;-75
2021/12/15 03:02:59;;;;;;;83.22;39.53;;;9.80;99.90;;;;;;5012327;28;20308;-75
2021/12/15 03:05:22;;;;;;;77.28;37.88;;;9.80;99.90;;;;;;5010955;28;20092;-75
2021/12/15 03:08:12;;;;;;;85.30;38.78;;;9.80;99.90;;;;;;5011330;28;20056;-75
2021/12/15 03:16:11;;;;;;;87.20;39.92;;;9.80;99.90;;;;;;5011070;28;20134;-76
2021/12/15 03:18:37;;;;;;;85.90;40.20;;;9.80;99.90;;;;;;5011228;28;20467;-75
2021/12/15 03:21:07;;;;;;;89.70;44.30;;;9.80;99.90;;;;;;5010975;28;20041;-76
2021/12/15 03:23:43;;;;;;;94.70;41.80;;;9.80;99.90;;;;;;5004665;28;20046;-76
2021/12/15 03:26:11;;;;;;;89.72;42.53;;;9.90;99.90;;;;;;5011253;28;20509;-75
2021/12/15 03:39:23;;;;;;;85.75;42.70;;;9.80;99.90;;;;;;4999510;28;20049;-76
2021/12/15 03:41:56;;;;;;;90.47;44.25;;;9.80;99.90;;;;;;5009651;28;20061;-75
2021/12/15 03:44:22;;;;;;;104.25;46.85;;;9.80;99.90;;;;;;5010141;28;20049;-75
2021/12/15 03:46:48;;;;;;;107.20;46.88;;;9.80;99.90;;;;;;4997967;28;20057;-76
2021/12/15 03:49:14;;;;;;;108.75;49.55;;;9.80;99.90;;;;;;4993779;28;20050;-75
2021/12/15 03:51:40;;;;;;;105.97;48.80;;;9.80;99.90;;;;;;5011179;28;20045;-76
2021/12/15 03:54:05;;;;;;;105.13;47.85;;;9.80;99.90;;;;;;5010904;28;20053;-76
2021/12/15 03:56:35;;;;;;;100.35;47.08;;;9.80;99.90;;;;;;5009826;28;20554;-76
2021/12/15 03:59:00;;;;;;;100.38;47.75;;;9.80;99.90;;;;;;5009721;28;20056;-75
2021/12/15 04:01:26;;;;;;;103.35;48.72;;;9.80;99.90;;;;;;5010854;28;20101;-76
2021/12/15 04:03:54;;;;;;;102.97;46.58;;;9.80;99.90;;;;;;5008951;28;20049;-76
2021/12/15 04:06:24;;;;;;;102.90;48.58;;;9.80;99.90;;;;;;5011208;28;20046;-75
2021/12/15 04:08:50;;;;;;;107.53;49.72;;;9.80;99.90;;;;;;5009529;28;20100;-75
2021/12/15 04:11:19;;;;;;;110.78;53.13;;;9.80;99.90;;;;;;5009487;28;20046;-75
2021/12/15 04:13:47;;;;;;;108.63;50.63;;;9.80;99.90;;;;;;5010614;28;20161;-75
2021/12/15 04:16:37;;;;;;;124.88;52.20;;;9.80;99.90;;;;;;5009231;28;20065;-75
2021/12/15 04:19:02;;;;;;;;;;;9.80;99.90;;;;;;5007313;28;20119;-75
2021/12/15 04:21:27;;;;;;;;;;;9.80;99.90;;;;;;5009697;28;19921;-75
2021/12/15 04:23:55;;;;;;;112.00;50.10;;;9.70;99.90;;;;;;5009065;28;19931;-76
2021/12/15 04:26:21;;;;;;;113.70;54.72;;;9.70;99.90;;;;;;5010813;28;20084;-75
2021/12/15 04:28:48;;;;;;;123.10;56.50;;;9.70;99.90;;;;;;5010675;28;20103;-75
2021/12/15 04:31:20;;;;;;;114.35;55.33;;;9.70;99.90;;;;;;5010137;28;20393;-75
2021/12/15 04:33:49;;;;;;;115.22;53.13;;;9.70;99.90;;;;;;5009183;28;20046;-76
2021/12/15 04:36:15;;;;;;;117.65;56.78;;;9.70;99.90;;;;;;5009370;28;20630;-75
2021/12/15 04:38:44;;;;;;;125.78;56.00;;;9.70;99.90;;;;;;5010575;28;20496;-75
2021/12/15 04:41:13;;;;;;;119.55;56.35;;;9.70;99.90;;;;;;5008731;28;20038;-75
2021/12/15 04:43:40;;;;;;;133.00;57.05;;;9.70;99.90;;;;;;5009415;28;20045;-75
2021/12/15 04:46:08;;;;;;;125.95;58.10;;;9.70;99.90;;;;;;5010690;28;20045;-75
2021/12/15 04:48:36;;;;;;;137.10;60.92;;;9.70;99.90;;;;;;5010471;28;20080;-75
2021/12/15 04:51:03;;;;;;;126.90;58.00;;;9.70;99.90;;;;;;5008980;28;20492;-75
2021/12/15 04:53:28;;;;;;;126.05;57.97;;;9.70;99.90;;;;;;5010013;28;20438;-75
2021/12/15 04:55:54;;;;;;;122.85;57.90;;;9.70;99.90;;;;;;5010553;28;20129;-75
2021/12/15 04:58:20;;;;;;;123.75;58.63;;;9.70;99.90;;;;;;5008920;28;20400;-75
2021/12/15 05:00:54;;;;;;;126.38;60.50;;;9.70;99.90;;;;;;5010352;28;20042;-75
2021/12/15 05:03:20;;;;;;;125.57;60.35;;;9.70;99.90;;;;;;5009562;28;20041;-75
2021/12/15 05:05:46;;;;;;;126.10;57.80;;;9.70;99.90;;;;;;5010447;28;20384;-75
2021/12/15 05:08:12;;;;;;;122.07;60.38;;;9.70;99.90;;;;;;5008520;28;20042;-75
2021/12/15 05:10:38;;;;;;;118.93;58.53;;;9.70;99.90;;;;;;5010003;28;20049;-75
2021/12/15 05:13:06;;;;;;;125.00;59.10;;;9.60;99.90;;;;;;5008300;28;20046;-75
2021/12/15 05:15:33;;;;;;;134.30;63.15;;;9.60;99.90;;;;;;5010348;28;20113;-75
2021/12/15 05:17:58;;;;;;;127.22;61.35;;;9.60;99.90;;;;;;5008934;28;20488;-75
2021/12/15 05:20:25;;;;;;;123.15;59.63;;;9.70;99.90;;;;;;5008316;28;20165;-75
2021/12/15 05:22:51;;;;;;;117.68;60.42;;;9.70;99.90;;;;;;5009819;28;20073;-75
2021/12/15 05:25:17;;;;;;;118.00;59.40;;;9.70;99.90;;;;;;5008460;28;20061;-75
2021/12/15 05:27:43;;;;;;;124.00;60.33;;;9.70;99.90;;;;;;5010444;28;20042;-77
2021/12/15 05:30:12;;;;;;;129.38;64.32;;;9.70;99.90;;;;;;5008195;28;20053;-75
2021/12/15 05:32:38;;;;;;;126.50;61.78;;;9.70;99.90;;;;;;5009316;28;20104;-76
2021/12/15 05:35:05;;;;;;;129.00;64.05;;;9.70;99.90;;;;;;5006546;28;20125;-75
2021/12/15 05:37:30;;;;;;;120.28;58.58;;;9.70;99.90;;;;;;5008674;28;20038;-75
2021/12/15 05:39:57;;;;;;;119.75;60.72;;;9.70;99.90;;;;;;5009513;28;20068;-75
2021/12/15 05:42:24;;;;;;;127.10;59.67;;;9.70;99.90;;;;;;4992240;28;20053;-76
2021/12/15 05:44:50;;;;;;;120.70;59.63;;;9.70;99.90;;;;;;5009495;28;20073;-76
2021/12/15 05:47:16;;;;;;;;;;;9.70;99.90;;;;;;5010370;28;20058;-75
2021/12/15 05:49:42;;;;;;;116.15;56.67;;;9.70;99.90;;;;;;5009165;28;20024;-75
2021/12/15 05:52:08;;;;;;;127.28;65.88;;;9.70;99.90;;;;;;5008140;28;20121;-75
2021/12/15 05:54:35;;;;;;;132.88;64.95;;;9.70;99.90;;;;;;5010682;28;20046;-75
2021/12/15 05:57:02;;;;;;;126.45;61.53;;;9.70;99.90;;;;;;5013755;28;20034;-75
2021/12/15 05:59:27;;;;;;;;;;;9.70;99.90;;;;;;5014105;28;20034;-75
2021/12/15 06:01:54;;;;;;;129.82;60.65;;;9.70;99.90;;;;;;5012492;28;19943;-75
2021/12/15 06:04:20;;;;;;;131.70;63.60;;;9.70;99.90;;;;;;5012977;28;20073;-75
2021/12/15 06:06:46;;;;;;;126.20;63.10;;;9.70;99.90;;;;;;5013503;28;20135;-75
2021/12/15 06:09:13;;;;;;;131.15;63.78;;;9.70;99.90;;;;;;5011835;28;20050;-77
2021/12/15 06:11:40;;;;;;;123.20;61.63;;;9.70;99.90;;;;;;5012630;28;20061;-77
2021/12/15 06:14:06;;;;;;;132.60;63.28;;;9.70;99.90;;;;;;5012617;28;20449;-77
2021/12/15 06:16:33;;;;;;;124.65;64.05;;;9.70;99.90;;;;;;5012066;28;20042;-77
2021/12/15 06:19:00;;;;;;;116.93;61.20;;;9.70;99.90;;;;;;5012831;28;20061;-77
2021/12/15 06:21:26;;;;;;;135.20;66.63;;;9.70;99.90;;;;;;5012479;28;20042;-77
2021/12/15 06:23:51;;;;;;;123.35;60.45;;;9.70;99.90;;;;;;5012684;28;20042;-74
2021/12/15 06:26:18;;;;;;;131.90;63.33;;;9.70;99.90;;;;;;5012629;28;20156;-74
2021/12/15 06:28:45;;;;;;;125.68;62.72;;;9.70;99.90;;;;;;5011551;28;20131;-75
2021/12/15 06:31:13;;;;;;;133.15;64.63;;;9.60;99.90;;;;;;5011111;28;20048;-74
2021/12/15 06:33:39;;;;;;;119.88;58.78;;;9.70;99.90;;;;;;5012694;28;20052;-74
2021/12/15 06:36:07;;;;;;;132.13;61.85;;;9.70;99.90;;;;;;5003655;28;20038;-74
2021/12/15 06:38:36;;;;;;;119.10;63.63;;;9.70;99.90;;;;;;4992003;28;20077;-75
2021/12/15 06:41:05;;;;;;;123.97;62.55;;;9.70;99.90;;;;;;5010176;28;20038;-74
2021/12/15 06:43:32;;;;;;;118.95;56.80;;;9.70;99.90;;;;;;5006294;28;20069;-75
2021/12/15 06:46:35;;;;;;;;;;;9.70;99.90;;;;;;5007130;28;20052;-75
2021/12/15 06:59:49;;;;;;;120.38;59.13;;;9.70;99.90;;;;;;4993326;28;20394;-74
2021/12/15 07:02:15;;;;;;;122.97;58.20;;;9.70;99.90;;;;;;5006426;28;20053;-75
2021/12/15 07:04:41;;;;;;;115.95;58.03;;;9.70;99.90;;;;;;5010490;28;20125;-77
2021/12/15 07:07:06;;;;;;;119.03;60.50;;;9.70;99.90;;;;;;5012371;28;20080;-77
2021/12/15 07:09:33;;;;;;;116.80;56.60;;;9.70;99.90;;;;;;5012765;28;20067;-77
2021/12/15 07:11:59;;;;;;;118.53;57.30;;;9.70;99.90;;;;;;5011994;28;20320;-77
2021/12/15 07:14:25;;;;;;;112.82;53.80;;;9.70;99.90;;;;;;4995643;28;20416;-77
2021/12/15 07:16:54;;;;;;;112.60;54.88;;;9.70;99.90;;;;;;4991587;28;20246;-77
2021/12/15 07:22:05;;;;;;;112.68;57.17;;;9.70;99.90;;;;;;5010737;28;20080;-74
2021/12/15 07:24:30;;;;;;;113.30;54.30;;;9.80;99.90;;;;;;5009139;28;20113;-75
2021/12/15 07:26:56;;;;;;;111.93;56.63;;;9.80;99.90;;;;;;5012043;28;20038;-75
2021/12/15 07:29:21;;;;;;;111.80;56.50;;;9.80;99.90;;;;;;5011937;28;20444;-74
2021/12/15 07:31:47;;;;;;;108.77;56.43;;;9.80;99.90;;;;;;5010294;28;20308;-77
2021/12/15 07:34:13;;;;;;;115.27;56.77;;;9.80;99.90;;;;;;5004421;28;20053;-76
2021/12/15 07:36:38;;;;;;;105.07;52.80;;;9.80;99.90;;;;;;5003856;28;20088;-77
2021/12/15 07:39:05;;;;;;;116.40;56.83;;;9.80;99.90;;;;;;5005825;28;20400;-76
2021/12/15 07:41:41;;;;;;;118.88;56.80;;;9.80;99.90;;;;;;5004675;28;20444;-76
2021/12/15 07:44:07;;;;;;;112.15;55.58;;;9.80;99.90;;;;;;4989389;28;20053;-76
2021/12/15 07:46:32;;;;;;;113.38;53.42;;;9.80;99.90;;;;;;5000077;28;20038;-76
2021/12/15 07:48:58;;;;;;;109.90;55.63;;;9.80;99.90;;;;;;5008762;28;20049;-76
2021/12/15 07:51:25;;;;;;;109.05;54.45;;;9.80;99.90;;;;;;5007453;28;20294;-76
2021/12/15 07:53:50;;;;;;;109.30;53.92;;;9.80;99.90;;;;;;5002035;28;20188;-76
2021/12/15 07:56:17;;;;;;;113.87;54.27;;;9.80;99.90;;;;;;5005941;28;20132;-77
2021/12/15 07:58:42;;;;;;;108.88;54.30;;;9.80;99.90;;;;;;4999097;28;20117;-75
2021/12/15 08:01:08;;;;;;;114.17;54.17;;;9.80;99.90;;;;;;4997730;28;20509;-75
2021/12/15 08:03:39;;;;;;;112.63;55.25;;;9.80;99.90;;;;;;4989974;28;20141;-76
2021/12/15 08:06:05;;;;;;;114.20;55.88;;;9.80;99.90;;;;;;5003409;28;20041;-76
2021/12/15 08:08:31;;;;;;;115.38;54.95;;;9.80;99.90;;;;;;5007009;28;20072;-76
2021/12/15 08:10:57;;;;;;;111.55;55.90;;;9.90;99.90;;;;;;5008791;28;20053;-76
2021/12/15 08:13:26;;;;;;;113.10;52.58;;;9.80;99.90;;;;;;5008653;28;20050;-76
2021/12/15 08:15:52;;;;;;;105.40;51.80;;;9.80;99.90;;;;;;4991870;28;20038;-75
2021/12/15 08:18:18;;;;;;;103.97;52.95;;;9.80;99.90;;;;;;5000512;28;20399;-76
2021/12/15 08:20:43;;;;;;;110.82;54.08;;;9.80;99.90;;;;;;5002775;28;20041;-75
2021/12/15 08:23:09;;;;;;;104.63;54.00;;;9.90;99.90;;;;;;5008977;28;20185;-75
2021/12/15 08:25:37;;;;;;;116.45;51.28;;;9.90;99.90;;;;;;5004839;28;20045;-75
2021/12/15 08:28:04;;;;;;;114.78;53.00;;;9.80;99.90;;;;;;5008911;28;20128;-75
2021/12/15 08:30:31;;;;;;;113.70;54.45;;;9.90;99.90;;;;;;5006712;28;20044;-75
2021/12/15 08:33:03;;;;;;;115.50;54.67;;;9.90;99.90;;;;;;5005147;28;20506;-71
2021/12/15 08:35:33;;;;;;;123.75;55.40;;;9.90;99.90;;;;;;5005612;28;20092;-72
2021/12/15 08:37:59;;;;;;;112.00;55.85;;;9.90;99.90;;;;;;5005431;28;20100;-74
2021/12/15 08:40:26;;;;;;;111.40;53.80;;;9.90;99.90;;;;;;5006718;28;20069;-71
2021/12/15 08:42:52;;;;;;;110.65;51.60;;;9.90;99.90;;;;;;5000635;28;20365;-75
2021/12/15 08:45:19;;;;;;;116.28;55.35;;;9.90;99.90;;;;;;4998813;28;20105;-74
2021/12/15 08:47:45;;;;;;;120.05;53.65;;;9.90;99.90;;;;;;5009361;28;20046;-72
2021/12/15 08:50:16;;;;;;;112.07;55.83;;;9.90;99.90;;;;;;4997640;28;20138;-70
2021/12/15 08:52:41;;;;;;;119.47;55.28;;;9.90;99.90;;;;;;5003853;28;20491;-69
2021/12/15 08:55:09;;;;;;;108.73;53.40;;;9.90;99.90;;;;;;5008485;28;20092;-69
2021/12/15 08:57:35;;;;;;;106.30;52.42;;;9.90;99.90;;;;;;4994901;28;20782;-69
2021/12/15 09:00:03;;;;;;;107.25;51.53;;;10.00;99.90;;;;;;5005739;28;20141;-72
2021/12/15 09:02:30;;;;;;;114.10;51.95;;;9.90;99.90;;;;;;5005871;28;20046;-74
2021/12/15 09:04:55;;;;;;;109.22;50.97;;;9.90;99.90;;;;;;5007784;28;20038;-73
2021/12/15 09:07:21;;;;;;;112.85;52.63;;;10.00;99.90;;;;;;4997671;28;20538;-73
2021/12/15 09:09:48;;;;;;;111.78;54.30;;;10.00;99.90;;;;;;5008827;28;20034;-73
2021/12/15 09:12:18;;;;;;;108.68;54.15;;;10.00;99.90;;;;;;5003754;28;20050;-74
2021/12/15 09:14:43;;;;;;;110.50;51.92;;;10.00;99.90;;;;;;5000661;28;20546;-73
2021/12/15 09:17:09;;;;;;;104.15;50.88;;;10.00;99.90;;;;;;5004194;28;20042;-73
2021/12/15 09:19:35;;;;;;;107.13;51.40;;;10.00;99.90;;;;;;5000240;28;20038;-73
2021/12/15 09:22:01;;;;;;;105.07;49.35;;;10.00;99.90;;;;;;5001210;28;20439;-73
2021/12/15 09:24:27;;;;;;;105.13;50.58;;;10.00;99.90;;;;;;5003527;28;20518;-73
2021/12/15 09:26:54;;;;;;;112.22;52.05;;;10.00;99.90;;;;;;5004923;28;20238;-73
2021/12/15 09:29:19;;;;;;;106.85;50.67;;;10.10;99.90;;;;;;5008107;28;20089;-73
2021/12/15 09:31:46;;;;;;;102.22;49.80;;;10.10;99.90;;;;;;5007601;28;20149;-73
2021/12/15 09:34:17;;;;;;;116.57;51.42;;;10.10;99.90;;;;;;5004293;28;20525;-73
2021/12/15 09:36:45;;;;;;;109.53;51.75;;;10.00;99.90;;;;;;5008546;28;20056;-73
2021/12/15 09:39:14;;;;;;;111.18;50.33;;;10.10;99.90;;;;;;5007723;28;20089;-75
2021/12/15 09:41:41;;;;;;;111.45;49.40;;;10.10;99.90;;;;;;5008881;28;20056;-75
2021/12/15 09:44:11;;;;;;;103.45;50.35;;;10.10;99.90;;;;;;5008821;28;20057;-75
2021/12/15 10:03:07;;;;;;;101.55;46.70;;;10.20;99.90;;;;;;5006627;28;20408;-73
2021/12/15 10:19:23;;;;;;;96.82;47.70;;;10.40;99.90;;;;;;5020808;28;20054;-73
2021/12/15 10:22:47;;;;;;;99.00;44.30;;;10.40;99.90;;;;;;5001354;28;20053;-73
2021/12/15 10:25:17;;;;;;;87.78;43.83;;;10.40;99.90;;;;;;5003272;28;20056;-73
2021/12/15 10:28:08;;;;;;;94.50;46.40;;;10.40;99.90;;;;;;5004821;28;20088;-73
2021/12/15 10:30:41;;;;;;;97.50;44.78;;;10.40;99.90;;;;;;5008048;28;20045;-73
2021/12/15 10:33:12;;;;;;;102.53;47.13;;;10.40;99.90;;;;;;5006881;28;20147;-73
2021/12/15 10:35:45;;;;;;;86.03;43.65;;;10.40;99.90;;;;;;5008270;28;20125;-73
2021/12/15 10:38:20;;;;;;;93.20;43.67;;;10.40;99.90;;;;;;5009148;28;20045;-73
2021/12/15 10:41:04;;;;;;;94.70;43.75;;;10.40;99.90;;;;;;5007072;28;20054;-73
2021/12/15 10:43:34;;;;;;;97.15;43.15;;;10.50;99.90;;;;;;4991025;28;20046;-73
2021/12/15 10:46:07;;;;;;;88.78;44.58;;;10.50;99.90;;;;;;5007688;28;20500;-73
2021/12/15 10:48:40;;;;;;;82.65;42.97;;;10.50;99.90;;;;;;5008713;28;20212;-74
2021/12/15 10:51:18;;;;;;;78.38;39.83;;;10.50;99.90;;;;;;5008044;28;20403;-73
2021/12/15 10:53:45;;;;;;;81.45;41.17;;;10.50;99.90;;;;;;5007914;28;20440;-73
2021/12/15 10:56:12;;;;;;;79.30;39.30;;;10.60;99.90;;;;;;5007813;28;20037;-73
2021/12/15 10:58:42;;;;;;;71.00;37.60;;;10.60;99.90;;;;;;5007555;28;20133;-74
2021/12/15 11:01:41;;;;;;;68.28;36.80;;;10.70;99.90;;;;;;5008013;28;20057;-73
2021/12/15 11:04:20;;;;;;;64.60;33.55;;;10.70;99.90;;;;;;5008405;28;20116;-73
2021/12/15 11:06:59;;;;;;;63.67;32.55;;;10.80;99.90;;;;;;5006476;28;20045;-73
2021/12/15 11:09:24;;;;;;;59.15;33.78;;;10.80;99.90;;;;;;5007098;28;20615;-73
2021/12/15 11:12:03;;;;;;;68.10;35.67;;;10.90;99.90;;;;;;5007308;28;20064;-73
2021/12/15 11:14:36;;;;;;;64.28;32.42;;;10.90;99.90;;;;;;5006918;28;20050;-73
2021/12/15 11:17:12;;;;;;;62.42;34.03;;;10.90;99.90;;;;;;5006748;28;20038;-73
2021/12/15 11:19:50;;;;;;;62.80;33.80;;;11.00;99.90;;;;;;5007069;28;20053;-73
2021/12/15 11:22:44;;;;;;;62.20;33.35;;;11.00;99.90;;;;;;5006350;28;20081;-72
2021/12/15 11:25:28;;;;;;;66.07;36.08;;;11.10;99.90;;;;;;5008296;28;20042;-72
2021/12/15 11:28:05;;;;;;;66.55;35.17;;;11.10;99.90;;;;;;5006633;28;20246;-73
2021/12/15 11:31:06;;;;;;;54.83;27.38;;;11.20;99.90;;;;;;5007851;28;20498;-73
2021/12/15 11:33:45;;;;;;;67.68;34.22;;;11.40;99.90;;;;;;5004414;28;20077;-73
2021/12/15 11:36:22;;;;;;;66.15;34.00;;;11.70;99.90;;;;;;5006963;28;20064;-73
2021/12/15 11:38:54;;;;;;;64.40;34.33;;;11.70;99.90;;;;;;5006171;28;20168;-73
2021/12/15 11:41:25;;;;;;;55.75;31.90;;;11.70;99.90;;;;;;5006472;28;20826;-73
2021/12/15 11:44:00;;;;;;;57.20;30.20;;;11.60;99.90;;;;;;5005149;28;20050;-73
2021/12/15 11:46:42;;;;;;;53.30;30.38;;;11.50;99.90;;;;;;5006211;28;20050;-73
2021/12/15 11:49:34;;;;;;;54.38;30.98;;;11.50;99.90;;;;;;4989530;28;20049;-73
2021/12/15 11:52:05;;;;;;;60.95;33.17;;;11.50;99.90;;;;;;5005329;28;20046;-73
2021/12/15 11:54:37;;;;;;;58.72;32.03;;;11.50;99.90;;;;;;5004796;28;20129;-73
2021/12/15 11:57:22;;;;;;;56.90;29.38;;;11.40;99.90;;;;;;5006307;28;20072;-73
2021/12/15 11:59:51;;;;;;;53.70;29.30;;;11.30;99.90;;;;;;5005916;28;20087;-73
2021/12/15 12:02:26;;;;;;;48.67;28.73;;;11.20;99.90;;;;;;5007381;28;20045;-73
2021/12/15 12:04:57;;;;;;;52.60;28.98;;;11.20;99.90;;;;;;5005408;28;20041;-73
2021/12/15 12:07:31;;;;;;;58.50;31.42;;;11.10;99.90;;;;;;4989496;28;20038;-73
2021/12/15 12:10:35;;;;;;;55.25;29.27;;;11.10;99.90;;;;;;5004294;28;20123;-73
2021/12/15 12:13:13;;;;;;;57.58;31.40;;;11.10;99.90;;;;;;4990854;28;20057;-72
2021/12/15 12:15:42;;;;;;;53.97;30.75;;;11.00;99.90;;;;;;5005662;28;20242;-72
2021/12/15 12:18:13;;;;;;;50.30;28.10;;;11.00;99.90;;;;;;5006085;28;20044;-72
2021/12/15 12:20:51;;;;;;;51.88;28.35;;;11.00;99.90;;;;;;4999398;28;20117;-73
2021/12/15 12:23:21;;;;;;;56.08;30.35;;;11.00;99.90;;;;;;5005944;28;20042;-73
2021/12/15 12:25:49;;;;;;;49.08;28.42;;;11.00;99.90;;;;;;5004021;28;20542;-72
2021/12/15 12:28:23;;;;;;;48.05;29.70;;;11.00;99.90;;;;;;5004237;28;20037;-72
2021/12/15 12:30:55;;;;;;;47.03;26.73;;;11.00;99.90;;;;;;5006405;28;20092;-72
2021/12/15 12:33:23;;;;;;;49.97;27.85;;;11.00;99.90;;;;;;5005200;28;20061;-72
2021/12/15 12:35:56;;;;;;;50.42;27.25;;;11.00;99.90;;;;;;5001994;28;20347;-72
2021/12/15 12:38:25;;;;;;;55.22;28.60;;;11.00;99.90;;;;;;5006838;28;20522;-72
2021/12/15 12:41:00;;;;;;;55.40;27.63;;;11.00;99.90;;;;;;5003647;28;20051;-72
2021/12/15 12:43:29;;;;;;;47.20;27.95;;;11.00;99.90;;;;;;5004061;28;20067;-72
2021/12/15 12:46:04;;;;;;;49.53;26.75;;;10.90;99.90;;;;;;5005123;28;20045;-72
2021/12/15 12:57:56;;;;;;;61.05;29.08;;;10.90;99.90;;;;;;5005220;28;20085;-72
2021/12/15 12:59:48;;;;;;;51.10;26.20;;;10.90;99.90;;;;;;4992598;28;20051;-72
2021/12/15 13:02:28;;;;;;;44.55;26.13;;;10.90;99.90;;;;;;5002958;28;20586;-72
2021/12/15 13:04:54;;;;;;;55.97;25.98;;;10.90;99.90;;;;;;5000081;28;20077;-72
2021/12/15 13:07:49;;;;;;;47.67;27.05;;;10.90;99.90;;;;;;5008397;28;20042;-72
2021/12/15 13:10:19;;;;;;;43.85;24.95;;;10.80;99.90;;;;;;5009080;28;20049;-73
2021/12/15 13:12:47;;;;;;;45.50;27.42;;;10.90;99.90;;;;;;5007500;28;20049;-72
2021/12/15 13:15:22;;;;;;;47.13;27.27;;;10.90;99.90;;;;;;5006716;28;20052;-74
2021/12/15 13:18:01;;;;;;;50.28;28.42;;;10.80;99.90;;;;;;5006991;28;20054;-74
2021/12/15 13:20:30;;;;;;;42.42;26.17;;;10.80;99.90;;;;;;5007866;28;20045;-74
2021/12/15 13:23:17;;;;;;;44.90;27.10;;;10.80;99.90;;;;;;5008298;28;20045;-74
2021/12/15 13:31:16;;;;;;;39.00;25.30;;;10.80;99.90;;;;;;5006920;28;20306;-74
2021/12/15 13:33:44;;;;;;;;;;;10.80;99.90;;;;;;5007942;28;20054;-74
2021/12/15 13:36:09;;;;;;;;;;;10.80;99.90;;;;;;4991308;28;19921;-74
2021/12/15 13:38:41;;;;;;;38.55;20.50;;;10.80;99.90;;;;;;5008090;28;19922;-74
2021/12/15 13:41:38;;;;;;;34.60;19.33;;;10.80;99.90;;;;;;5006611;28;20088;-74
2021/12/15 13:44:44;;;;;;;28.45;17.83;;;10.80;99.90;;;;;;5008557;28;20089;-74
2021/12/15 13:47:19;;;;;;;25.58;16.08;;;10.80;99.90;;;;;;4966410;28;20047;-74
2021/12/15 13:50:15;;;;;;;27.95;14.45;;;10.70;99.90;;;;;;5000794;28;20702;-74
2021/12/15 13:52:45;;;;;;;23.55;13.73;;;10.70;99.90;;;;;;5005899;28;20068;-74
2021/12/15 13:55:30;;;;;;;21.85;13.52;;;10.70;99.90;;;;;;5009551;28;20377;-74
2021/12/15 13:58:00;;;;;;;19.13;11.60;;;10.70;99.90;;;;;;4999420;28;20041;-74
2021/12/15 14:00:47;;;;;;;18.38;10.38;;;10.70;99.90;;;;;;5007916;28;20133;-74
2021/12/15 14:03:30;;;;;;;12.73;8.02;;;10.70;99.90;;;;;;5006448;28;20034;-74
2021/12/15 14:06:14;;;;;;;16.27;8.30;;;10.60;99.90;;;;;;5007373;28;20044;-74
2021/12/15 14:08:48;;;;;;;15.02;8.13;;;10.60;99.90;;;;;;5003989;28;20050;-74
2021/12/15 14:11:42;;;;;;;20.52;8.25;;;10.60;99.90;;;;;;5003245;28;20128;-74
2021/12/15 14:14:22;;;;;;;15.45;7.53;;;10.50;99.90;;;;;;4992492;28;20050;-74
2021/12/15 14:16:55;;;;;;;9.25;6.88;;;10.50;99.90;;;;;;5008642;28;20104;-74
2021/12/15 14:19:33;;;;;;;13.93;7.38;;;10.50;99.90;;;;;;5005911;28;20092;-74